Time;durP1;ratioP1;P1;durP2;ratioP2;P2;SDS_P1;SDS_P2;PMS_P1;PMS_P2;Temp;Humidity;BMP_temperature;BMP_pressure;BME280_temperature;BME280_humidity;BME280_pressure;Samples;Min_cycle;Max_cycle;Signal;HPM_P1;HPM_P2
2022/09/25 00:00:32;;;;;;;;;;;;;;;19.27;63.70;100640.16;2151853;82;51540;-78
2022/09/25 00:03:33;;;;;;;;;;;;;;;19.27;63.66;100641.50;2151404;82;51461;-77
2022/09/25 00:06:35;;;;;;;;;;;;;;;19.26;63.63;100638.47;2129537;82;52513;-77
2022/09/25 00:09:37;;;;;;;;;;;;;;;19.26;63.64;100639.81;2151890;82;52526;-78
2022/09/25 00:12:38;;;;;;;;;;;;;;;19.28;63.52;100638.30;2189165;80;51515;-78
2022/09/25 00:15:42;;;;;;;;;;;;;;;19.27;63.55;100633.45;2180765;80;51483;-78
2022/09/25 00:22:03;;;;;;;;;;;;;;;19.26;63.50;100631.77;2175685;82;22386;-78
2022/09/25 00:25:04;;;;;;;;;;;;;;;19.28;63.40;100629.73;2150629;81;50637;-78
2022/09/25 00:28:06;;;;;;;;;;;;;;;19.25;63.38;100623.41;2150647;82;50729;-78
2022/09/25 00:31:08;;;;;;;;;;;;;;;19.24;63.47;100616.39;2151929;81;50982;-78
2022/09/25 00:34:09;;;;;;;;;;;;;;;19.24;63.58;100614.20;2150357;82;52357;-78
2022/09/25 00:37:11;;;;;;;;;;;;;;;19.25;63.50;100611.34;2175286;82;50351;-78
2022/09/25 00:40:13;;;;;;;;;;;;;;;19.24;63.60;100608.83;2175430;80;50446;-78
2022/09/25 00:43:14;;;;;;;;;;;;;;;19.24;63.58;100604.33;2193924;80;50662;-78
2022/09/25 00:46:17;;;;;;;;;;;;;;;19.23;63.50;100608.00;2217094;79;50472;-78
2022/09/25 00:49:19;;;;;;;;;;;;;;;19.24;63.40;100600.78;2216858;80;50788;-78
2022/09/25 00:52:21;;;;;;;;;;;;;;;19.23;63.60;100600.47;2212539;79;50840;-78
2022/09/25 00:55:23;;;;;;;;;;;;;;;19.21;63.54;100599.31;2188149;80;50069;-78
2022/09/25 00:58:25;;;;;;;;;;;;;;;19.22;63.50;100599.66;2175510;80;51612;-78
2022/09/25 01:01:27;;;;;;;;;;;;;;;19.28;63.26;100604.25;2143011;81;51594;-78
2022/09/25 01:04:28;;;;;;;;;;;;;;;19.27;63.91;100606.63;2142820;81;50389;-77
2022/09/25 01:07:31;;;;;;;;;;;;;;;19.26;64.37;100604.94;2119971;82;51075;-78
2022/09/25 01:10:32;;;;;;;;;;;;;;;19.25;64.45;100601.12;2158084;80;51574;-77
2022/09/25 01:13:34;;;;;;;;;;;;;;;19.26;64.29;100598.23;2182737;80;51521;-77
2022/09/25 01:16:46;;;;;;;;;;;;;;;19.25;64.37;100601.95;2175426;81;51584;-78
2022/09/25 01:19:58;;;;;;;;;;;;;;;19.24;64.41;100590.91;2151706;82;49586;-78
2022/09/25 01:23:05;;;;;;;;;;;;;;;19.27;64.11;100597.75;2175486;82;50508;-77
2022/09/25 01:26:17;;;;;;;;;;;;;;;19.26;64.00;100594.21;2175051;82;51715;-78
2022/09/25 01:29:22;;;;;;;;;;;;;;;19.25;63.97;100596.58;2175453;82;51650;-78
2022/09/25 01:32:25;;;;;;;;;;;;;;;19.25;64.21;100594.42;2152535;81;52676;-78
2022/09/25 01:35:28;;;;;;;;;;;;;;;19.28;64.19;100592.69;2175120;80;51603;-78
2022/09/25 01:38:38;;;;;;;;;;;;;;;19.25;64.31;100589.87;2175720;80;51567;-78
2022/09/25 01:41:41;;;;;;;;;;;;;;;19.23;64.30;100586.55;2175646;82;50766;-78
2022/09/25 01:44:44;;;;;;;;;;;;;;;19.24;64.24;100588.23;2182636;80;49697;-77
2022/09/25 01:47:47;;;;;;;;;;;;;;;19.25;64.20;100588.53;2176561;81;50470;-77
2022/09/25 01:51:05;;;;;;;;;;;;;;;19.27;64.06;100585.67;2177276;81;50698;-78
2022/09/25 01:54:08;;;;;;;;;;;;;;;19.25;64.23;100589.87;2177029;81;50459;-77
2022/09/25 01:57:17;;;;;;;;;;;;;;;19.24;64.28;100589.56;2154030;81;52576;-78
2022/09/25 02:00:20;;;;;;;;;;;;;;;19.24;64.38;100595.42;2177533;80;51564;-77
2022/09/25 02:03:26;;;;;;;;;;;;;;;19.26;64.19;100590.70;2177019;80;51552;-78
2022/09/25 02:06:28;;;;;;;;;;;;;;;19.24;64.44;100592.25;2176976;80;50525;-78
2022/09/25 02:09:34;;;;;;;;;;;;;;;19.23;64.47;100586.55;2154174;81;51812;-78
2022/09/25 02:12:40;;;;;;;;;;;;;;;19.23;64.39;100581.70;2201956;80;51546;-78
2022/09/25 02:15:43;;;;;;;;;;;;;;;19.22;64.55;100587.58;2176745;81;50450;-78
2022/09/25 02:22:23;;;;;;;;;;;;;;;19.22;64.55;100583.55;2178052;81;22396;-77
2022/09/25 02:25:26;;;;;;;;;;;;;;;19.25;64.35;100581.83;2178023;81;22353;-78
2022/09/25 02:28:28;;;;;;;;;;;;;;;19.22;64.45;100576.02;2177766;81;51077;-78
2022/09/25 02:31:34;;;;;;;;;;;;;;;19.22;64.42;100575.51;2177939;81;51516;-77
2022/09/25 02:34:36;;;;;;;;;;;;;;;19.22;64.39;100572.00;2153779;81;50092;-79
2022/09/25 02:37:37;;;;;;;;;;;;;;;19.22;64.34;100574.69;2178232;81;51568;-78
2022/09/25 02:40:41;;;;;;;;;;;;;;;19.22;64.32;100572.83;2181607;81;50730;-78
2022/09/25 02:43:44;;;;;;;;;;;;;;;19.22;64.34;100569.31;2190285;80;50723;-78
2022/09/25 02:46:53;;;;;;;;;;;;;;;19.21;64.38;100573.83;2207005;80;49479;-78
2022/09/25 02:50:04;;;;;;;;;;;;;;;19.21;64.39;100575.17;2229775;80;51506;-78
2022/09/25 02:53:10;;;;;;;;;;;;;;;19.21;64.21;100571.14;2232023;80;51565;-78
2022/09/25 02:56:19;;;;;;;;;;;;;;;19.19;64.40;100571.02;2209268;80;51888;-78
2022/09/25 02:59:23;;;;;;;;;;;;;;;19.20;64.21;100575.38;2207562;80;51303;-77
2022/09/25 03:02:25;;;;;;;;;;;;;;;19.20;64.33;100570.84;2229763;80;50465;-78
2022/09/25 03:05:27;;;;;;;;;;;;;;;19.20;64.25;100565.47;2229730;80;51500;-78
2022/09/25 03:08:38;;;;;;;;;;;;;;;19.18;64.33;100566.16;2206729;80;51283;-78
2022/09/25 03:11:42;;;;;;;;;;;;;;;19.19;64.27;100566.98;2206953;80;49705;-78
2022/09/25 03:14:42;;;;;;;;;;;;;;;19.20;64.43;100567.33;2193804;79;22403;-78
2022/09/25 03:17:45;;;;;;;;;;;;;;;19.17;64.47;100567.20;2229361;80;51619;-78
2022/09/25 03:20:46;;;;;;;;;;;;;;;19.18;64.47;100566.16;2229335;80;50454;-78
2022/09/25 03:23:48;;;;;;;;;;;;;;;19.17;64.43;100571.22;2206604;80;51822;-78
2022/09/25 03:26:50;;;;;;;;;;;;;;;19.18;64.43;100566.16;2207005;80;51661;-78
2022/09/25 03:29:52;;;;;;;;;;;;;;;19.17;64.29;100566.37;2229584;80;50005;-77
2022/09/25 03:32:54;;;;;;;;;;;;;;;19.15;64.45;100563.86;2229351;80;51576;-78
2022/09/25 03:36:03;;;;;;;;;;;;;;;19.14;64.32;100569.75;2206395;80;51071;-77
2022/09/25 03:39:05;;;;;;;;;;;;;;;19.15;64.25;100564.69;2206955;80;51550;-78
2022/09/25 03:42:07;;;;;;;;;;;;;;;19.16;64.38;100564.17;2212050;80;50731;-78
2022/09/25 03:45:10;;;;;;;;;;;;;;;19.14;64.30;100560.88;2197289;80;51605;-77
2022/09/25 03:48:12;;;;;;;;;;;;;;;19.12;64.46;100559.71;2206995;80;51035;-78
2022/09/25 03:51:13;;;;;;;;;;;;;;;19.14;64.53;100557.67;2207046;80;51557;-77
2022/09/25 03:54:15;;;;;;;;;;;;;;;19.15;64.34;100557.98;2229074;80;50353;-77
2022/09/25 03:57:16;;;;;;;;;;;;;;;19.14;64.21;100549.63;2229314;79;50310;-78
2022/09/25 04:00:18;;;;;;;;;;;;;;;19.16;64.16;100542.72;2206761;80;50110;-78
2022/09/25 04:03:21;;;;;;;;;;;;;;;19.15;64.38;100550.45;2206917;80;50713;-78
2022/09/25 04:06:24;;;;;;;;;;;;;;;19.14;64.19;100546.95;2207329;80;51745;-78
2022/09/25 04:09:25;;;;;;;;;;;;;;;19.16;64.07;100549.42;2229443;80;50792;-78
2022/09/25 04:12:27;;;;;;;;;;;;;;;19.17;64.15;100547.59;2193388;80;50982;-78
2022/09/25 04:15:29;;;;;;;;;;;;;;;19.17;64.14;100544.40;2176178;80;51451;-77
2022/09/25 04:18:30;;;;;;;;;;;;;;;19.14;64.13;100550.97;2150782;81;51481;-78
2022/09/25 04:21:32;;;;;;;;;;;;;;;19.15;64.14;100553.14;2208162;79;51611;-78
2022/09/25 04:24:48;;;;;;;;;;;;;;;19.17;64.03;100541.72;2188609;80;51043;-78
2022/09/25 04:27:50;;;;;;;;;;;;;;;19.17;63.87;100540.38;2190402;80;50269;-77
2022/09/25 04:30:52;;;;;;;;;;;;;;;19.21;63.71;100544.32;2212838;80;50784;-78
2022/09/25 04:33:54;;;;;;;;;;;;;;;19.23;63.63;100541.46;2166668;80;51569;-77
2022/09/25 04:36:55;;;;;;;;;;;;;;;19.20;64.01;100546.70;2121599;82;52526;-76
2022/09/25 04:39:57;;;;;;;;;;;;;;;19.20;64.33;100544.53;2142713;81;50435;-77
2022/09/25 04:42:59;;;;;;;;;;;;;;;19.17;64.60;100547.08;2162917;81;50803;-77
2022/09/25 04:46:01;;;;;;;;;;;;;;;19.19;64.24;100546.88;2212806;80;51562;-77
2022/09/25 04:49:03;;;;;;;;;;;;;;;19.16;64.13;100544.05;2206498;80;51046;-77
2022/09/25 04:52:05;;;;;;;;;;;;;;;19.19;64.12;100543.70;2229303;80;51514;-77
2022/09/25 04:55:07;;;;;;;;;;;;;;;19.20;64.04;100546.70;2189646;80;50798;-77
2022/09/25 04:58:08;;;;;;;;;;;;;;;19.19;64.09;100541.51;2171753;81;50156;-77
2022/09/25 05:01:10;;;;;;;;;;;;;;;19.15;64.17;100541.06;2153272;81;50115;-77
2022/09/25 05:04:13;;;;;;;;;;;;;;;19.16;63.97;100537.35;2176640;81;51531;-77
2022/09/25 05:07:14;;;;;;;;;;;;;;;19.12;64.17;100538.77;2176978;80;50497;-77
2022/09/25 05:10:16;;;;;;;;;;;;;;;19.15;63.90;100544.57;2177109;81;50699;-77
2022/09/25 05:13:17;;;;;;;;;;;;;;;19.19;63.74;100542.84;2170764;80;49571;-76
2022/09/25 05:16:19;;;;;;;;;;;;;;;19.16;63.82;100542.72;2195448;80;50655;-77
2022/09/25 05:19:21;;;;;;;;;;;;;;;19.19;63.83;100542.36;2229339;80;50400;-79
2022/09/25 05:22:22;;;;;;;;;;;;;;;19.18;64.02;100548.73;2207355;80;50781;-79
2022/09/25 05:25:24;;;;;;;;;;;;;;;19.17;64.06;100545.73;2213528;80;50638;-78
2022/09/25 05:28:26;;;;;;;;;;;;;;;19.16;63.85;100546.73;2187928;80;50331;-79
2022/09/25 05:31:28;;;;;;;;;;;;;;;19.17;62.19;100553.78;2187388;80;52119;-79
2022/09/25 05:34:29;;;;;;;;;;;;;;;19.19;62.73;100549.55;2186960;80;51917;-78
2022/09/25 05:37:31;;;;;;;;;;;;;;;19.17;62.26;100557.81;2212462;80;51408;-78
2022/09/25 05:40:33;;;;;;;;;;;;;;;19.15;62.42;100562.52;2187455;80;51625;-77
2022/09/25 05:43:36;;;;;;;;;;;;;;;19.13;62.42;100560.02;2182022;80;51546;-76
2022/09/25 05:46:39;;;;;;;;;;;;;;;19.11;62.75;100563.91;2201276;80;51803;-77
2022/09/25 05:49:40;;;;;;;;;;;;;;;19.10;62.75;100563.59;2206427;80;50131;-77
2022/09/25 05:52:42;;;;;;;;;;;;;;;19.07;62.83;100560.78;2206779;80;50394;-76
2022/09/25 05:55:57;;;;;;;;;;;;;;;19.07;62.78;100551.91;2229294;80;50391;-76
2022/09/25 05:58:58;;;;;;;;;;;;;;;19.05;62.77;100557.45;2212919;80;50456;-77
2022/09/25 06:02:00;;;;;;;;;;;;;;;19.07;62.70;100559.96;2165816;81;49599;-77
2022/09/25 06:05:01;;;;;;;;;;;;;;;19.05;62.75;100562.81;2174921;81;50786;-77
2022/09/25 06:08:03;;;;;;;;;;;;;;;19.04;62.76;100563.02;2150728;81;51501;-77
2022/09/25 06:11:04;;;;;;;;;;;;;;;19.05;62.72;100560.65;2150251;81;52534;-77
2022/09/25 06:14:06;;;;;;;;;;;;;;;19.05;62.70;100559.31;2151427;82;51056;-77
2022/09/25 06:17:08;;;;;;;;;;;;;;;19.06;62.65;100562.30;2150993;81;51505;-77
2022/09/25 06:20:10;;;;;;;;;;;;;;;19.08;62.62;100564.29;2175187;82;50754;-77
2022/09/25 06:23:11;;;;;;;;;;;;;;;19.07;62.63;100569.34;2175182;82;51641;-77
2022/09/25 06:26:13;;;;;;;;;;;;;;;19.07;62.59;100566.15;2128436;82;52598;-76
2022/09/25 06:29:15;;;;;;;;;;;;;;;19.14;62.39;100568.92;2150322;81;51529;-77
2022/09/25 06:32:16;;;;;;;;;;;;;;;19.15;62.38;100563.86;2157447;80;50384;-76
2022/09/25 06:35:18;;;;;;;;;;;;;;;19.13;62.40;100565.38;2206891;80;50333;-76
2022/09/25 06:38:19;;;;;;;;;;;;;;;19.17;62.29;100568.53;2183169;80;49498;-76
2022/09/25 06:41:21;;;;;;;;;;;;;;;19.19;62.25;100571.02;2229180;80;50373;-76
2022/09/25 06:44:23;;;;;;;;;;;;;;;19.18;62.24;100571.53;2229024;80;51626;-76
2022/09/25 06:47:25;;;;;;;;;;;;;;;19.18;62.21;100570.19;2206665;80;51644;-76
2022/09/25 06:50:31;;;;;;;;;;;;;;;19.20;62.15;100571.35;2206639;80;51019;-76
2022/09/25 06:53:30;;;;;;;;;;;;;;;19.20;62.15;100576.20;2227317;79;22798;-76
2022/09/25 06:56:32;;;;;;;;;;;;;;;19.21;62.08;100572.48;2229063;79;51596;-76
2022/09/25 06:59:33;;;;;;;;;;;;;;;19.20;62.10;100572.17;2229037;80;51503;-76
2022/09/25 07:05:54;;;;;;;;;;;;;;;19.20;62.07;100576.20;2210124;80;25245;-76
2022/09/25 07:08:56;;;;;;;;;;;;;;;19.21;62.03;100575.17;2206766;80;51542;-76
2022/09/25 07:11:57;;;;;;;;;;;;;;;19.21;62.02;100579.19;2229170;80;51467;-76
2022/09/25 07:14:59;;;;;;;;;;;;;;;19.19;62.02;100570.53;2206406;80;52490;-76
2022/09/25 07:18:00;;;;;;;;;;;;;;;19.19;62.01;100571.88;2229080;80;50823;-75
2022/09/25 07:21:03;;;;;;;;;;;;;;;19.20;61.97;100557.94;2206723;80;50467;-76
2022/09/25 07:24:05;;;;;;;;;;;;;;;19.21;61.95;100563.61;2229083;80;51733;-76
2022/09/25 07:27:06;;;;;;;;;;;;;;;19.20;61.96;100564.64;2206745;80;52492;-76
2022/09/25 07:30:09;;;;;;;;;;;;;;;19.22;61.89;100556.73;2206767;80;53417;-76
2022/09/25 07:33:11;;;;;;;;;;;;;;;19.20;61.90;100555.26;2206551;80;50241;-77
2022/09/25 07:36:12;;;;;;;;;;;;;;;19.20;61.94;100549.37;2228858;80;50737;-76
2022/09/25 07:39:14;;;;;;;;;;;;;;;19.18;61.96;100550.59;2206622;80;51000;-77
2022/09/25 07:42:16;;;;;;;;;;;;;;;19.19;61.92;100552.23;2206837;80;51510;-77
2022/09/25 07:45:17;;;;;;;;;;;;;;;19.18;61.94;100552.75;2228881;80;50331;-76
2022/09/25 07:48:20;;;;;;;;;;;;;;;19.18;61.94;100552.75;2206856;80;50227;-77
2022/09/25 07:51:22;;;;;;;;;;;;;;;19.18;61.94;100566.16;2206902;80;50142;-77
2022/09/25 07:54:23;;;;;;;;;;;;;;;19.19;61.93;100565.65;2206707;80;51616;-77
2022/09/25 07:57:26;;;;;;;;;;;;;;;19.19;61.93;100565.65;2229094;80;50579;-76
2022/09/25 08:00:27;;;;;;;;;;;;;;;19.18;61.92;100562.14;2220221;80;51600;-76
2022/09/25 08:03:29;;;;;;;;;;;;;;;19.18;61.90;100562.14;2130316;82;51267;-77
2022/09/25 08:06:32;;;;;;;;;;;;;;;19.17;61.92;100550.28;2175087;82;50292;-76
2022/09/25 08:09:34;;;;;;;;;;;;;;;19.16;61.90;100553.45;2175053;82;50502;-77
2022/09/25 08:12:35;;;;;;;;;;;;;;;19.17;61.97;100548.42;2175092;82;50747;-77
2022/09/25 08:15:37;;;;;;;;;;;;;;;19.16;61.90;100542.72;2128781;82;49627;-77
2022/09/25 08:18:44;;;;;;;;;;;;;;;19.17;61.88;100539.55;2150444;81;50395;-77
2022/09/25 08:21:42;;;;;;;;;;;;;;;19.15;61.86;100545.09;2175006;80;22765;-77
2022/09/25 08:24:44;;;;;;;;;;;;;;;19.16;61.87;100542.72;2174882;82;51517;-76
2022/09/25 08:27:46;;;;;;;;;;;;;;;19.16;61.86;100531.98;2128819;81;50959;-77
2022/09/25 08:30:47;;;;;;;;;;;;;;;19.18;61.80;100534.49;2150412;82;50801;-77
2022/09/25 08:33:49;;;;;;;;;;;;;;;19.17;61.81;100540.38;2150268;81;51515;-77
2022/09/25 08:36:51;;;;;;;;;;;;;;;19.17;61.80;100540.38;2174989;81;51557;-77
2022/09/25 08:39:52;;;;;;;;;;;;;;;19.18;61.79;100539.86;2151566;82;51034;-76
2022/09/25 08:42:54;;;;;;;;;;;;;;;19.17;61.77;100536.35;2150464;81;51449;-77
2022/09/25 08:49:19;;;;;;;;;;;;;;;19.16;61.73;100536.01;2177011;81;22346;-77
2022/09/25 08:52:20;;;;;;;;;;;;;;;19.18;61.71;100533.98;2175025;80;23078;-77
2022/09/25 08:56:13;;;;;;;;;;;;;;;19.17;61.68;100535.52;2174942;82;50416;-77
2022/09/25 08:58:30;;;;;;;;;;;;;;;19.14;61.75;100536.73;2172501;80;22325;-77
2022/09/25 09:01:51;;;;;;;;;;;;;;;19.14;61.72;100536.22;2175425;81;51719;-77
2022/09/25 09:04:52;;;;;;;;;;;;;;;19.15;61.68;100536.53;2175178;79;22338;-77
2022/09/25 09:07:56;;;;;;;;;;;;;;;19.17;61.65;100539.55;2150472;82;50506;-77
2022/09/25 09:10:58;;;;;;;;;;;;;;;19.18;61.61;100537.17;2175175;82;50500;-77
2022/09/25 09:14:04;;;;;;;;;;;;;;;19.17;61.62;100544.40;2174957;82;51614;-77
2022/09/25 09:17:16;;;;;;;;;;;;;;;19.18;61.64;100539.86;2151840;81;49488;-77
2022/09/25 09:20:18;;;;;;;;;;;;;;;19.18;61.63;100529.95;2175537;80;22433;-77
2022/09/25 09:23:21;;;;;;;;;;;;;;;19.17;61.66;100529.64;2175223;80;50427;-78
2022/09/25 09:26:24;;;;;;;;;;;;;;;19.17;61.69;100530.16;2175319;82;51493;-77
2022/09/25 09:29:27;;;;;;;;;;;;;;;19.17;61.63;100531.50;2151303;82;50986;-77
2022/09/25 09:32:31;;;;;;;;;;;;;;;19.17;61.65;100528.82;2211746;80;51514;-77
2022/09/25 09:35:37;;;;;;;;;;;;;;;19.14;61.63;100518.78;2177175;80;50940;-77
2022/09/25 09:38:40;;;;;;;;;;;;;;;19.15;61.57;100516.93;2177271;80;51507;-77
2022/09/25 09:41:53;;;;;;;;;;;;;;;19.14;61.58;100517.96;2153940;81;50148;-78
2022/09/25 09:44:57;;;;;;;;;;;;;;;19.15;61.55;100515.07;2177017;80;50801;-77
2022/09/25 09:48:12;;;;;;;;;;;;;;;19.15;61.55;100512.91;2177261;80;50763;-77
2022/09/25 09:51:24;;;;;;;;;;;;;;;19.15;61.54;100512.91;2177178;81;50389;-77
2022/09/25 09:54:41;;;;;;;;;;;;;;;19.15;61.57;100515.07;2177126;81;51622;-78
2022/09/25 09:57:44;;;;;;;;;;;;;;;19.14;61.59;100513.94;2177384;81;50337;-78
2022/09/25 10:00:46;;;;;;;;;;;;;;;19.15;61.48;100508.88;2177496;81;50315;-77
2022/09/25 10:03:48;;;;;;;;;;;;;;;19.15;61.47;100508.88;2176408;81;51560;-78
2022/09/25 10:06:51;;;;;;;;;;;;;;;19.17;61.44;100501.48;2153838;81;49626;-78
2022/09/25 10:09:54;;;;;;;;;;;;;;;19.16;61.45;100497.13;2176893;80;50810;-77
2022/09/25 10:12:58;;;;;;;;;;;;;;;19.16;61.47;100498.46;2177743;81;51565;-78
2022/09/25 10:16:10;;;;;;;;;;;;;;;19.16;61.46;100502.48;2181936;81;22300;-78
2022/09/25 10:19:22;;;;;;;;;;;;;;;19.15;61.50;100490.94;2178378;80;21979;-77
2022/09/25 10:22:25;;;;;;;;;;;;;;;19.17;61.42;100497.98;2184624;80;50797;-77
2022/09/25 10:25:37;;;;;;;;;;;;;;;19.16;61.40;100494.44;2178499;80;51324;-78
2022/09/25 10:28:38;;;;;;;;;;;;;;;19.15;61.42;100489.59;2177311;80;52384;-77
2022/09/25 10:31:40;;;;;;;;;;;;;;;19.16;61.42;100483.70;2153020;80;50985;-78
2022/09/25 10:34:42;;;;;;;;;;;;;;;19.16;61.37;100486.39;2228801;80;51575;-77
2022/09/25 10:37:43;;;;;;;;;;;;;;;19.16;61.34;100491.75;2233778;79;51667;-78
2022/09/25 10:40:46;;;;;;;;;;;;;;;19.15;61.35;100494.95;2229309;80;51491;-78
2022/09/25 10:43:55;;;;;;;;;;;;;;;19.15;61.37;100490.94;2206594;80;50232;-78
2022/09/25 10:50:20;;;;;;;;;;;;;;;19.16;61.34;100483.70;2233082;79;21754;-78
2022/09/25 10:53:28;;;;;;;;;;;;;;;19.17;61.34;100485.91;2232381;80;51269;-78
2022/09/25 10:56:34;;;;;;;;;;;;;;;19.17;61.31;100481.88;2229094;79;22508;-78
2022/09/25 10:59:33;;;;;;;;;;;;;;;19.18;61.29;100475.48;2228829;79;23130;-78
2022/09/25 11:02:39;;;;;;;;;;;;;;;19.17;61.31;100476.00;2177288;81;51640;-77
2022/09/25 11:05:43;;;;;;;;;;;;;;;19.18;61.28;100474.14;2176897;81;51613;-77
2022/09/25 11:08:45;;;;;;;;;;;;;;;19.18;61.24;100477.65;2131520;81;50160;-77
2022/09/25 11:11:48;;;;;;;;;;;;;;;19.18;61.23;100470.95;2176955;81;51543;-77
2022/09/25 11:14:56;;;;;;;;;;;;;;;19.17;61.23;100472.50;2176834;80;50269;-77
2022/09/25 11:17:58;;;;;;;;;;;;;;;19.17;61.25;100476.52;2177240;80;22292;-77
2022/09/25 11:21:03;;;;;;;;;;;;;;;19.16;61.29;100475.66;2153870;81;49640;-77
2022/09/25 11:24:19;;;;;;;;;;;;;;;19.16;61.27;100478.34;2153766;81;50512;-77
2022/09/25 11:27:22;;;;;;;;;;;;;;;19.16;61.29;100475.66;2176849;80;50455;-76
2022/09/25 11:30:24;;;;;;;;;;;;;;;19.16;61.25;100472.98;2176927;81;51608;-77
2022/09/25 11:33:43;;;;;;;;;;;;;;;19.17;61.19;100471.16;2176028;81;51497;-77
2022/09/25 11:37:03;;;;;;;;;;;;;;;19.15;61.27;100468.65;2177054;81;50456;-77
2022/09/25 11:43:30;;;;;;;;;;;;;;;19.14;61.24;100466.48;2163182;81;22321;-77
2022/09/25 11:46:50;;;;;;;;;;;;;;;19.15;61.18;100457.92;2152941;81;52179;-76
2022/09/25 11:49:53;;;;;;;;;;;;;;;19.12;61.21;100455.11;2176983;81;50819;-77
2022/09/25 11:53:00;;;;;;;;;;;;;;;19.13;61.24;100458.10;2177005;80;51560;-77
2022/09/25 11:56:16;;;;;;;;;;;;;;;19.14;61.23;100453.08;2176811;81;51569;-77
2022/09/25 11:59:37;;;;;;;;;;;;;;;19.12;61.26;100455.11;2153467;81;51032;-77
2022/09/25 12:02:45;;;;;;;;;;;;;;;19.12;61.28;100442.22;2175364;80;22847;-77
2022/09/25 12:05:55;;;;;;;;;;;;;;;19.13;61.24;100438.50;2176638;81;50543;-77
2022/09/25 12:09:09;;;;;;;;;;;;;;;19.13;61.20;100441.19;2176988;80;51475;-77
2022/09/25 12:12:27;;;;;;;;;;;;;;;19.13;61.20;100437.98;2177020;80;50412;-77
2022/09/25 12:15:48;;;;;;;;;;;;;;;19.16;61.13;100432.75;2175839;81;51792;-77
2022/09/25 12:19:09;;;;;;;;;;;;;;;19.14;61.13;100428.94;2176932;81;51532;-77
2022/09/25 12:22:12;;;;;;;;;;;;;;;19.16;61.15;100430.06;2176954;80;50327;-78
2022/09/25 12:25:32;;;;;;;;;;;;;;;19.14;61.18;100421.41;2153553;81;51861;-78
2022/09/25 12:28:41;;;;;;;;;;;;;;;19.18;61.11;100413.80;2176881;81;50417;-76
2022/09/25 12:31:51;;;;;;;;;;;;;;;19.17;61.14;100407.61;2176150;80;51456;-77
2022/09/25 12:34:56;;;;;;;;;;;;;;;19.18;61.07;100413.80;2175757;80;22434;-78
2022/09/25 12:38:04;;;;;;;;;;;;;;;19.18;61.08;100421.33;2174872;80;50283;-78
2022/09/25 12:41:10;;;;;;;;;;;;;;;19.17;61.14;100416.99;2137362;82;51141;-78
2022/09/25 12:44:13;;;;;;;;;;;;;;;19.21;61.06;100419.59;2175740;82;51586;-78
2022/09/25 12:47:34;;;;;;;;;;;;;;;19.21;61.05;100416.09;2175933;82;51495;-77
2022/09/25 12:50:38;;;;;;;;;;;;;;;19.20;61.10;100411.76;2175730;82;52453;-78
2022/09/25 12:53:41;;;;;;;;;;;;;;;19.20;61.03;100405.88;2151274;81;51929;-78
2022/09/25 12:56:48;;;;;;;;;;;;;;;19.21;61.05;100406.70;2175118;82;50972;-78
2022/09/25 12:59:54;;;;;;;;;;;;;;;19.21;61.02;100405.36;2174834;82;51482;-77
2022/09/25 13:02:57;;;;;;;;;;;;;;;19.23;61.00;100396.61;2175559;81;50278;-76
2022/09/25 13:06:09;;;;;;;;;;;;;;;19.23;60.98;100397.44;2152675;81;51339;-76
2022/09/25 13:09:16;;;;;;;;;;;;;;;19.23;60.93;100391.25;2177009;81;50277;-77
2022/09/25 13:12:32;;;;;;;;;;;;;;;19.24;60.95;100390.21;2176420;81;50685;-77
2022/09/25 13:15:34;;;;;;;;;;;;;;;19.23;60.93;100394.75;2176725;81;51525;-77
2022/09/25 13:18:37;;;;;;;;;;;;;;;19.22;60.97;100395.79;2153381;81;50121;-77
2022/09/25 13:21:41;;;;;;;;;;;;;;;19.23;60.92;100390.73;2176961;81;50146;-77
2022/09/25 13:24:49;;;;;;;;;;;;;;;19.23;60.85;100389.39;2176811;81;51526;-76
2022/09/25 13:27:52;;;;;;;;;;;;;;;19.23;60.92;100388.05;2176906;81;51538;-77
2022/09/25 13:31:08;;;;;;;;;;;;;;;19.24;60.93;100386.19;2152984;81;49630;-77
2022/09/25 13:34:12;;;;;;;;;;;;;;;19.25;60.87;100383.33;2175224;81;50434;-77
2022/09/25 13:37:14;;;;;;;;;;;;;;;19.25;60.92;100384.66;2174956;82;50212;-77
2022/09/25 13:43:38;;;;;;;;;;;;;;;19.25;60.87;100380.64;2175192;82;22274;-77
2022/09/25 13:46:40;;;;;;;;;;;;;;;19.24;60.95;100380.83;2174837;82;50739;-77
2022/09/25 13:49:43;;;;;;;;;;;;;;;19.23;60.98;100370.61;2150097;81;51442;-77
2022/09/25 13:52:46;;;;;;;;;;;;;;;19.23;60.95;100366.59;2150393;81;50482;-77
2022/09/25 13:55:49;;;;;;;;;;;;;;;19.25;60.91;100366.41;2151080;81;49739;-77
2022/09/25 13:59:11;;;;;;;;;;;;;;;19.24;60.95;100360.22;2174820;82;50532;-77
2022/09/25 14:02:21;;;;;;;;;;;;;;;19.24;60.93;100358.02;2174869;82;50709;-77
2022/09/25 14:05:20;;;;;;;;;;;;;;;19.23;60.97;100355.04;2170389;81;22679;-76
2022/09/25 14:08:22;;;;;;;;;;;;;;;19.23;61.01;100356.38;2153941;81;50082;-76
2022/09/25 14:11:25;;;;;;;;;;;;;;;19.22;61.00;100351.53;2177085;80;51478;-77
2022/09/25 14:14:51;;;;;;;;;;;;;;;19.22;60.97;100358.23;2176886;81;50681;-76
2022/09/25 14:17:49;;;;;;;;;;;;;;;19.22;60.96;100359.58;2176510;81;22418;-76
2022/09/25 14:20:51;;;;;;;;;;;;;;;19.21;61.00;100354.39;2163560;81;49655;-76
2022/09/25 14:23:53;;;;;;;;;;;;;;;19.21;60.97;100349.85;2176895;81;51567;-76
2022/09/25 14:26:56;;;;;;;;;;;;;;;19.24;60.85;100348.15;2153640;80;50604;-76
2022/09/25 14:30:03;;;;;;;;;;;;;;;19.25;60.85;100342.27;2177020;80;51611;-77
2022/09/25 14:33:06;;;;;;;;;;;;;;;19.24;60.86;100337.91;2154143;80;52894;-77
2022/09/25 14:36:24;;;;;;;;;;;;;;;19.23;60.90;100335.74;2228122;79;50451;-76
2022/09/25 14:39:31;;;;;;;;;;;;;;;19.24;60.87;100337.42;2228624;79;51554;-76
2022/09/25 14:42:34;;;;;;;;;;;;;;;19.24;60.82;100329.38;2228830;79;50502;-76
2022/09/25 14:45:46;;;;;;;;;;;;;;;19.27;60.77;100318.25;2206240;80;50651;-77
2022/09/25 14:48:55;;;;;;;;;;;;;;;19.25;60.85;100316.27;2228744;80;51384;-76
2022/09/25 14:51:59;;;;;;;;;;;;;;;19.26;60.85;100324.62;2228990;80;51529;-77
2022/09/25 14:55:00;;;;;;;;;;;;;;;19.23;60.92;100320.98;2228878;80;51574;-77
2022/09/25 14:58:03;;;;;;;;;;;;;;;19.24;60.92;100323.16;2206600;80;51006;-77
2022/09/25 15:01:25;;;;;;;;;;;;;;;19.22;60.94;100318.00;2226645;80;50286;-77
2022/09/25 15:04:28;;;;;;;;;;;;;;;19.23;60.92;100312.94;2194105;80;50411;-77
2022/09/25 15:07:30;;;;;;;;;;;;;;;19.24;60.90;100317.30;2176990;80;50876;-77
2022/09/25 15:10:37;;;;;;;;;;;;;;;19.23;60.87;100315.63;2153273;81;49591;-77
2022/09/25 15:13:38;;;;;;;;;;;;;;;19.24;60.85;100310.59;2176815;81;50430;-77
2022/09/25 15:20:01;;;;;;;;;;;;;;;19.25;60.83;100324.31;2157172;81;22395;-76
2022/09/25 15:23:03;;;;;;;;;;;;;;;19.23;60.89;100320.98;2153369;81;51434;-77
2022/09/25 15:26:05;;;;;;;;;;;;;;;19.23;60.87;100318.30;2176825;81;51517;-76
2022/09/25 15:29:08;;;;;;;;;;;;;;;19.23;60.88;100326.35;2153039;81;51575;-77
2022/09/25 15:32:17;;;;;;;;;;;;;;;19.21;60.92;100319.01;2174106;81;52571;-77
2022/09/25 15:35:20;;;;;;;;;;;;;;;19.23;60.86;100309.44;2193935;80;52734;-77
2022/09/25 15:38:29;;;;;;;;;;;;;;;19.21;60.87;100308.80;2229060;80;51506;-76
2022/09/25 15:41:31;;;;;;;;;;;;;;;19.22;60.86;100313.98;2228582;79;51521;-77
2022/09/25 15:44:32;;;;;;;;;;;;;;;19.20;60.90;100312.00;2228877;80;51682;-76
2022/09/25 15:47:36;;;;;;;;;;;;;;;19.21;60.86;100308.28;2206288;80;51598;-77
2022/09/25 15:50:37;;;;;;;;;;;;;;;19.20;60.85;100305.81;2206526;80;52506;-76
2022/09/25 15:53:42;;;;;;;;;;;;;;;19.12;60.98;100298.22;2206788;80;51596;-76
2022/09/25 15:56:46;;;;;;;;;;;;;;;19.12;61.04;100308.13;2228965;79;22355;-76
2022/09/25 16:06:33;;;;;;;;;;;;;;;19.09;61.04;100295.11;2175202;82;22602;-77
2022/09/25 16:09:34;;;;;;;;;;;;;;;19.08;61.07;100304.16;2174430;82;50824;-76
2022/09/25 16:12:46;;;;;;;;;;;;;;;19.08;61.05;100295.60;2151565;82;50110;-76
2022/09/25 16:15:53;;;;;;;;;;;;;;;19.06;61.08;100294.99;2174679;82;51491;-77
2022/09/25 16:18:56;;;;;;;;;;;;;;;19.07;61.09;100294.47;2174082;80;51521;-77